ADDS METAR Data INFO
IDs: Format: Raw Decoded Include TAF

Data at: 1253 UTC 05 Jul 2015

Region: TOP
KATL 051244Z 23004KT 10SM SCT007 BKN150 BKN200 BKN250 22/19 A3015 RMK AO2 CIG LWR NE-S $

KBOS 051154Z 27008KT 7SM CLR 19/14 A3005 RMK AO2 SLP174 T01940144 10194 20161 51014

KBWI 051154Z 00000KT 4SM BR FEW200 BKN250 21/19 A3013 RMK AO2 SLP202 70027 T02060189 10206 20178 53022 $

KCLE 051251Z 17006KT 10SM BKN250 19/12 A3016 RMK AO2 SLP210 T01890122

KCLT 051218Z 18005KT 8SM BKN007 BKN070 OVC130 23/21 A3012 RMK AO2 RAB1157E10 P0000

KCVG 051152Z 05004KT 7SM BKN150 OVC250 21/15 A3011 RMK AO2 SLP185 T02060150 10211 20194 51016 $

KDCA 051152Z 04004KT 7SM FEW014 SCT160 OVC250 23/19 A3014 RMK AO2 SLP205 70085 T02280194 10233 20217 53017

KDEN 051153Z 20007KT 10SM FEW180 SCT220 17/11 A3000 RMK AO2 SLP071 T01720106 10228 20161 53005 $

KDFW 051153Z 18009KT 10SM FEW025 SCT140 BKN300 25/23 A3001 RMK AO2 SLP154 T02500228 10283 20250 51016

KDTW 051153Z 16003KT 7SM SCT220 18/15 A3012 RMK AO2 SLP196 T01780150 10178 20156 50009

KEWR 051251Z 25005KT 9SM FEW080 BKN250 23/17 A3012 RMK AO2 SLP200 T02280167

KFLL 051153Z 14008KT 10SM FEW024 29/23 A3013 RMK AO2 SLP204 T02890233 10289 20283 53012

KIAD 051215Z 00000KT 2SM BR OVC002 19/18 A3015 RMK AO2

KIAH 051153Z 11004KT 8SM FEW018 BKN250 26/24 A3006 RMK AO2 SLP178 T02560244 10267 20250 53012

KJFK 051251Z 23006KT 10SM FEW045 BKN260 24/16 A3013 RMK AO2 SLP202 T02390161 $

KLAS 051156Z 19009KT 10SM FEW100 FEW250 31/09 A2982 RMK AO2 SLP065 T03110089 10350 20311 51006

KLAX 051153Z 29003KT 9SM OVC014 18/16 A2994 RMK AO2 SLP137 T01780156 10178 20167 55000

KLGA 051251Z 34003KT 10SM FEW031 SCT200 BKN250 23/16 A3012 RMK AO2 SLP198 T02280156

KMCO 051153Z 12003KT 10SM FEW250 SCT300 26/24 A3017 RMK AO2 SLP215 T02560244 10256 20244 52015

KMDW 051153Z 21003KT 4SM HZ FEW050 21/16 A3008 RMK AO2 SLP178 T02060161 10217 20183 53007

KMEM 051154Z 19006KT 8SM FEW035 SCT250 21/20 A3008 RMK AO2 SLP183 70004 T02110200 10222 20206 51013

KMIA 051153Z 12007KT 10SM FEW024 FEW120 FEW300 29/23 A3014 RMK AO2 SLP207 T02890228 10289 20278 53013

KMSP 051153Z 17006KT 9SM OVC300 20/15 A2995 RMK AO2 SLP136 T02000150 10228 20189 53005

KORD 051251Z 26003KT 3SM BR CLR 21/16 A3009 RMK AO2 SLP186 T02060156

KPDX 051153Z 33003KT 10SM CLR 21/13 A2980 RMK AO2 SLP091 T02060133 10267 20206 53012

KPHL 051250Z 20003KT 10SM FEW040 BKN260 23/16 A3014 RMK AO2 $

KPHX 051251Z 27008KT 10SM BKN190 BKN250 32/15 A2987 RMK AO2 SLP092 T03170150

KPIT 051251Z 00000KT 9SM OVC250 18/13 A3016 RMK AO2 SLP213 T01780133

KSAN 051251Z 28003KT 10SM OVC015 19/14 A2996 RMK AO2 SLP146 T01890139 $

KSEA 051153Z 00000KT 10SM CLR 18/09 A2982 RMK AO2 SLP099 T01830094 10244 20178 53001

KSFO 051156Z 19003KT 10SM FEW005 SCT012 16/13 A2990 RMK AO2 SLP126 T01610128 10172 20156 53004

KSLC 051153Z 00000KT 10SM FEW090 BKN120 OVC150 26/15 A2997 RMK AO2 SLP079 60000 T02560150 10278 20256 53008

KSTL 051251Z 12004KT 4SM HZ CLR 23/18 A3007 RMK AO2 SLP173 T02280183

KTPA 051153Z 00000KT 10SM FEW270 27/23 A3015 RMK AO2 SLP210 70142 T02670228 10267 20250 51014